Time;durP1;ratioP1;P1;durP2;ratioP2;P2;SDS_P1;SDS_P2;PMS_P1;PMS_P2;Temp;Humidity;BMP_temperature;BMP_pressure;BME280_temperature;BME280_humidity;BME280_pressure;Samples;Min_cycle;Max_cycle;Signal;HPM_P1;HPM_P2
2021/12/13 00:01:50;;;;;;;88.83;44.80;;;;;;;0.46;100.00;101280.76;3446060;83;99165;-86
2021/12/13 00:06:57;;;;;;;94.13;47.87;;;;;;;0.49;100.00;101280.16;3478361;83;99353;-85
2021/12/13 00:12:02;;;;;;;95.90;47.13;;;;;;;0.48;100.00;101285.86;3450653;82;98955;-86
2021/12/13 00:17:11;;;;;;;97.80;46.10;;;;;;;0.52;100.00;101289.08;3471559;83;99090;-85
2021/12/13 00:22:23;;;;;;;91.43;46.13;;;;;;;0.52;100.00;101285.55;3452681;82;98995;-86
2021/12/13 00:27:29;;;;;;;94.95;46.80;;;;;;;0.55;100.00;101297.17;3476232;82;99091;-85
2021/12/13 00:33:03;;;;;;;97.37;47.43;;;;;;;0.58;100.00;101294.69;3478434;83;99206;-84
2021/12/13 00:38:08;;;;;;;87.63;43.47;;;;;;;0.63;100.00;101287.03;3452079;83;99071;-84
2021/12/13 00:43:24;;;;;;;97.27;46.20;;;;;;;0.66;100.00;101285.11;3461804;82;99402;-84
2021/12/13 00:48:29;;;;;;;101.22;48.48;;;;;;;0.67;100.00;101278.02;3462905;81;99148;-84
2021/12/13 00:53:38;;;;;;;97.67;45.17;;;;;;;0.68;100.00;101270.19;3475386;82;99120;-84
2021/12/13 00:58:39;;;;;;;98.00;45.97;;;;;;;0.67;100.00;101283.44;3412440;83;99448;-83
2021/12/13 01:03:46;;;;;;;100.13;47.93;;;;;;;0.67;100.00;101293.49;3429812;83;99111;-84
2021/12/13 01:09:38;;;;;;;98.03;46.48;;;;;;;0.67;100.00;101285.37;3440135;84;99431;-83
2021/12/13 01:15:01;;;;;;;93.83;44.33;;;;;;;0.67;100.00;101286.16;3426780;84;33264;-83
2021/12/13 01:20:31;;;;;;;94.87;47.80;;;;;;;0.68;100.00;101287.79;3398986;84;99166;-83
2021/12/13 01:25:48;;;;;;;91.00;43.90;;;;;;;0.71;100.00;101285.84;3428967;84;98818;-82
2021/12/13 01:31:04;;;;;;;88.78;45.88;;;;;;;0.73;100.00;101295.83;3443640;83;99125;-84
2021/12/13 01:36:09;;;;;;;90.60;44.27;;;;;;;0.74;100.00;101300.70;3467656;83;99465;-83
2021/12/13 01:41:18;;;;;;;81.00;42.57;;;;;;;0.75;100.00;101309.91;3386705;83;99407;-83
2021/12/13 01:46:21;;;;;;;88.43;43.87;;;;;;;0.77;100.00;101306.91;3390469;84;99524;-83
2021/12/13 01:51:26;;;;;;;86.92;42.40;;;;;;;0.80;100.00;101311.73;3389002;85;98768;-84
2021/12/13 02:01:37;;;;;;;93.57;45.17;;;;;;;0.82;100.00;101321.19;3399230;84;99530;-83
2021/12/13 02:06:46;;;;;;;94.73;45.93;;;;;;;0.82;100.00;101315.77;3354315;86;99092;-83
2021/12/13 02:11:52;;;;;;;92.95;42.88;;;;;;;0.83;100.00;101317.38;3429151;83;98621;-84
2021/12/13 02:17:15;;;;;;;102.97;49.97;;;;;;;0.82;100.00;101316.33;3416232;84;98352;-84
2021/12/13 02:22:43;;;;;;;95.93;44.20;;;;;;;0.83;100.00;101316.02;3484710;82;99741;-84
2021/12/13 02:27:52;;;;;;;95.73;45.27;;;;;;;0.79;100.00;101316.36;3314627;86;99681;-83
2021/12/13 02:32:53;;;;;;;100.60;49.50;;;;;;;0.84;100.00;101316.84;3459146;81;33657;-84
2021/12/13 02:37:57;;;;;;;93.37;45.23;;;;;;;0.83;100.00;101310.59;3445504;84;99499;-83
2021/12/13 02:42:59;;;;;;;99.70;44.93;;;;;;;0.84;100.00;101310.06;3437131;84;98908;-83
2021/12/13 02:48:07;;;;;;;96.53;46.50;;;;;;;0.80;100.00;101315.80;3446306;83;98685;-83
2021/12/13 02:53:12;;;;;;;101.10;48.43;;;;;;;0.76;100.00;101314.75;3479850;82;99084;-84
2021/12/13 02:58:18;;;;;;;94.55;45.73;;;;;;;0.82;100.00;101319.04;3465291;83;99205;-85
2021/12/13 03:03:23;;;;;;;100.00;48.25;;;;;;;0.84;100.00;101319.01;3485805;83;25922;-85
2021/12/13 03:08:33;;;;;;;107.43;47.90;;;;;;;0.86;100.00;101319.52;3461334;83;99321;-85
2021/12/13 03:13:34;;;;;;;84.23;41.40;;;;;;;0.86;100.00;101322.76;3452645;83;99383;-85
2021/12/13 03:18:47;;;;;;;104.47;50.70;;;;;;;0.87;100.00;101328.43;3426998;83;98956;-85
2021/12/13 03:24:36;;;;;;;92.37;44.57;;;;;;;0.90;100.00;101327.33;3450535;83;99212;-85
2021/12/13 03:30:03;;;;;;;101.47;47.73;;;;;;;0.93;100.00;101328.08;3452745;83;99532;-84
2021/12/13 03:35:19;;;;;;;97.05;45.65;;;;;;;0.97;100.00;101328.30;3425689;83;99778;-85
2021/12/13 03:40:24;;;;;;;93.37;45.03;;;;;;;0.99;100.00;101324.77;3442211;83;99877;-85
2021/12/13 03:45:30;;;;;;;106.33;47.70;;;;;;;0.95;100.00;101331.33;3473045;83;26280;-85
2021/12/13 03:50:37;;;;;;;96.42;46.10;;;;;;;0.96;100.00;101324.80;3453620;83;99374;-85
2021/12/13 03:55:40;;;;;;;108.78;49.95;;;;;;;0.97;100.00;101328.30;3457504;83;98114;-85
2021/12/13 04:00:46;;;;;;;95.97;44.75;;;;;;;1.00;100.00;101326.38;3416809;83;99745;-85
2021/12/13 04:05:48;;;;;;;93.30;46.35;;;;;;;1.00;100.00;101319.60;3445003;83;99480;-84
2021/12/13 04:10:54;;;;;;;101.97;49.37;;;;;;;1.02;100.00;101322.81;3437859;83;99109;-85
2021/12/13 04:16:14;;;;;;;109.77;48.23;;;;;;;1.04;100.00;101333.62;3463361;82;99290;-85
2021/12/13 04:21:10;;;;;;;100.87;46.00;;;;;;;1.07;100.00;101340.37;3435190;83;99046;-85
2021/12/13 04:26:12;;;;;;;93.30;46.80;;;;;;;1.07;100.00;101343.08;3439725;84;99091;-85
2021/12/13 04:31:21;;;;;;;98.33;44.40;;;;;;;1.08;100.00;101346.04;3468934;83;99359;-84
2021/12/13 04:36:36;;;;;;;100.57;45.80;;;;;;;1.06;100.00;101342.83;3489330;83;99357;-85
2021/12/13 04:41:44;;;;;;;88.47;42.03;;;;;;;1.12;100.00;101348.44;3462427;83;99208;-84
2021/12/13 04:46:50;;;;;;;98.07;46.97;;;;;;;1.16;100.00;101355.68;3471145;83;99149;-83
2021/12/13 04:52:00;;;;;;;97.97;45.05;;;;;;;1.19;100.00;101358.36;3479094;82;99036;-83
2021/12/13 04:57:03;;;;;;;96.00;45.17;;;;;;;1.20;100.00;101354.58;3435186;83;33274;-84
2021/12/13 05:02:09;;;;;;;98.90;45.40;;;;;;;1.16;100.00;101358.39;3441843;83;98867;-83
2021/12/13 05:07:10;;;;;;;91.70;42.53;;;;;;;1.15;100.00;101361.42;3446477;83;99017;-83
2021/12/13 05:12:15;;;;;;;95.83;44.73;;;;;;;1.13;100.00;101356.28;3452251;83;99142;-83
2021/12/13 05:17:36;;;;;;;93.22;44.55;;;;;;;1.17;100.00;101360.03;3437488;83;99525;-84
2021/12/13 05:22:54;;;;;;;88.35;43.60;;;;;;;1.22;100.00;101355.08;3442667;82;99008;-84
2021/12/13 05:28:04;;;;;;;98.43;45.20;;;;;;;1.20;100.00;101368.92;3428466;83;107122;-84
2021/12/13 05:33:08;;;;;;;99.90;44.80;;;;;;;1.19;100.00;101371.38;3461013;83;26837;-83
2021/12/13 05:38:29;;;;;;;105.33;47.40;;;;;;;1.22;100.00;101364.00;3452022;83;99632;-84
2021/12/13 05:43:38;;;;;;;98.60;44.13;;;;;;;1.23;100.00;101366.17;3412278;84;99059;-84
2021/12/13 05:48:50;;;;;;;87.60;39.30;;;;;;;1.26;100.00;101366.95;3447831;83;99171;-84
2021/12/13 05:54:08;;;;;;;85.33;40.00;;;;;;;1.29;100.00;101377.20;3453621;83;99469;-83
2021/12/13 05:59:26;;;;;;;84.10;39.63;;;;;;;1.27;100.00;101382.91;3450545;83;99422;-85
2021/12/13 06:04:56;;;;;;;87.40;38.80;;;;;;;1.28;100.00;101395.39;3445478;83;99470;-84
2021/12/13 06:10:11;;;;;;;88.07;39.95;;;;;;;1.25;100.00;101393.79;3453272;83;99301;-83
2021/12/13 06:15:35;;;;;;;80.10;35.53;;;;;;;1.25;100.00;101397.32;3462394;83;33933;-84
2021/12/13 06:20:50;;;;;;;79.03;35.92;;;;;;;1.27;100.00;101400.53;3444814;83;98700;-84
2021/12/13 06:26:05;;;;;;;84.90;36.53;;;;;;;1.23;100.00;101397.36;3459025;82;98960;-85
2021/12/13 06:31:20;;;;;;;89.87;38.93;;;;;;;1.22;100.00;101401.95;3452087;83;98983;-84
2021/12/13 06:36:32;;;;;;;77.67;37.37;;;;;;;1.24;100.00;101394.89;3442656;83;99139;-85
2021/12/13 06:41:38;;;;;;;86.80;39.07;;;;;;;1.22;100.00;101407.38;3423594;83;99508;-85
2021/12/13 06:47:00;;;;;;;97.22;41.65;;;;;;;1.22;100.00;101414.16;3424991;84;99119;-85
2021/12/13 06:52:16;;;;;;;85.07;38.07;;;;;;;1.25;100.00;101423.08;3446418;83;99471;-86
2021/12/13 06:57:36;;;;;;;84.37;40.30;;;;;;;1.28;100.00;101432.54;3449722;83;33188;-86
2021/12/13 07:02:49;;;;;;;89.85;37.23;;;;;;;1.28;100.00;101431.19;3452598;83;98943;-85
2021/12/13 07:08:01;;;;;;;81.50;35.80;;;;;;;1.28;100.00;101436.61;3442224;83;99415;-85
2021/12/13 07:13:07;;;;;;;95.37;40.97;;;;;;;1.29;100.00;101451.77;3452868;83;99135;-84
2021/12/13 07:18:28;;;;;;;102.07;44.18;;;;;;;1.32;100.00;101449.85;3442720;83;99465;-85
2021/12/13 07:23:25;;;;;;;89.27;39.83;;;;;;;1.35;100.00;101447.89;3468289;83;99265;-86
2021/12/13 07:28:34;;;;;;;113.87;50.87;;;;;;;1.34;100.00;101457.95;3443373;84;99241;-87
2021/12/13 07:33:40;;;;;;;95.43;42.30;;;;;;;1.39;100.00;101461.14;3451689;84;33234;-87
2021/12/13 07:39:00;;;;;;;100.23;40.00;;;;;;;1.38;100.00;101462.24;3478686;83;99049;-88
2021/12/13 07:44:01;;;;;;;108.50;45.73;;;;;;;1.41;100.00;101468.42;3492364;82;99188;-87
2021/12/13 07:49:08;;;;;;;115.77;55.93;;;;;;;1.44;100.00;101470.03;3443508;84;99368;-90
2021/12/13 07:54:13;;;;;;;126.77;53.53;;;;;;;1.48;100.00;101469.69;3455530;83;99266;-87
2021/12/13 07:59:36;;;;;;;144.97;60.03;;;;;;;1.53;100.00;101478.33;3430290;83;99986;-89
2021/12/13 08:04:58;;;;;;;148.70;63.28;;;;;;;1.44;100.00;101456.48;3461561;83;99247;-89
2021/12/13 08:10:07;;;;;;;168.95;71.07;;;;;;;1.54;100.00;101484.00;3449455;83;99331;-86
2021/12/13 08:15:22;;;;;;;174.40;69.23;;;;;;;1.53;100.00;101487.25;3465886;83;33757;-88
2021/12/13 08:20:34;;;;;;;151.03;61.53;;;;;;;1.57;100.00;101488.84;3440305;83;99082;-88
2021/12/13 08:25:39;;;;;;;140.70;60.77;;;;;;;1.58;100.00;101492.62;3440112;84;99113;-90
2021/12/13 08:30:53;;;;;;;127.10;57.08;;;;;;;1.62;100.00;101492.30;3422204;83;99342;-93
2021/12/13 08:36:07;;;;;;;134.50;52.53;;;;;;;1.65;100.00;101496.34;3458478;83;99309;-93
2021/12/13 08:41:22;;;;;;;149.23;58.70;;;;;;;1.69;100.00;101506.31;3433240;83;99577;-91
2021/12/13 08:46:39;;;;;;;131.70;55.13;;;;;;;1.71;100.00;101506.81;3459099;83;99860;-92
2021/12/13 08:51:50;;;;;;;;;;;;;;;1.74;100.00;101516.28;3447775;83;98957;-92
2021/12/13 08:56:52;;;;;;;121.40;52.90;;;;;;;1.77;100.00;101521.95;3440869;83;83805;-90
2021/12/13 09:02:04;;;;;;;114.47;50.60;;;;;;;1.83;100.00;101534.89;3453710;83;99210;-93
2021/12/13 09:07:10;;;;;;;135.33;53.87;;;;;;;1.84;100.00;101541.93;3452924;84;99652;-92
2021/12/13 09:12:16;;;;;;;122.53;50.35;;;;;;;1.86;100.00;101535.11;3449022;83;99252;-90
2021/12/13 09:17:22;;;;;;;116.67;48.83;;;;;;;1.90;100.00;101544.29;3448821;83;99276;-89
2021/12/13 09:22:37;;;;;;;107.00;43.57;;;;;;;1.92;100.00;101548.87;3441353;83;99259;-90
2021/12/13 09:27:56;;;;;;;102.57;42.30;;;;;;;1.97;100.00;101551.52;3479601;83;34137;-92
2021/12/13 09:33:17;;;;;;;96.20;41.63;;;;;;;2.02;100.00;101548.73;3468689;82;98963;-92
2021/12/13 09:38:26;;;;;;;122.20;50.90;;;;;;;2.07;100.00;101546.52;3455018;82;98914;-90
2021/12/13 09:43:47;;;;;;;118.77;49.50;;;;;;;2.11;100.00;101545.63;3455246;83;99095;-87
2021/12/13 09:48:52;;;;;;;105.40;45.57;;;;;;;2.17;100.00;101545.80;3451324;83;99480;-87
2021/12/13 09:53:58;;;;;;;118.53;48.37;;;;;;;2.19;100.00;101549.02;3452699;83;99713;-88
2021/12/13 09:59:07;;;;;;;115.13;49.50;;;;;;;2.25;100.00;101547.05;3437148;83;99377;-86
2021/12/13 10:04:13;;;;;;;95.70;43.00;;;;;;;2.27;100.00;101549.73;3451582;83;99304;-86
2021/12/13 10:09:25;;;;;;;103.12;43.73;;;;;;;2.30;100.00;101549.13;3439742;83;98854;-85
2021/12/13 10:14:32;;;;;;;101.07;41.33;;;;;;;2.34;100.00;101555.59;3442422;83;99133;-86
2021/12/13 10:19:36;;;;;;;;;;;;;;;2.38;100.00;101559.34;3441312;84;99676;-86
2021/12/13 10:24:55;;;;;;;95.77;41.98;;;;;;;2.39;100.00;101558.77;3439339;83;85040;-86
2021/12/13 10:30:00;;;;;;;98.95;41.40;;;;;;;2.41;100.00;101555.23;3448823;83;99077;-88
2021/12/13 10:35:09;;;;;;;96.87;43.03;;;;;;;2.42;100.00;101556.84;3460149;83;99517;-88
2021/12/13 10:40:21;;;;;;;94.80;39.57;;;;;;;2.44;100.00;101549.19;3435469;83;99082;-88
2021/12/13 10:45:30;;;;;;;102.57;44.13;;;;;;;2.44;100.00;101539.14;3447708;83;26434;-87
2021/12/13 10:50:40;;;;;;;101.60;44.23;;;;;;;2.47;100.00;101540.45;3469866;83;99012;-86
2021/12/13 10:55:46;;;;;;;112.30;47.40;;;;;;;2.49;100.00;101543.67;3454714;83;99707;-88
2021/12/13 11:00:56;;;;;;;109.07;45.67;;;;;;;2.50;100.00;101541.20;3448450;83;99411;-86
2021/12/13 11:05:59;;;;;;;108.10;46.47;;;;;;;2.53;100.00;101533.83;3436156;83;99693;-87
2021/12/13 11:11:06;;;;;;;113.03;48.30;;;;;;;2.55;100.00;101527.54;3382177;84;99219;-88
2021/12/13 11:16:22;;;;;;;103.25;44.10;;;;;;;2.55;100.00;101527.00;3432414;84;99192;-86
2021/12/13 11:21:31;;;;;;;99.87;43.80;;;;;;;2.57;100.00;101529.43;3424702;83;99210;-86
2021/12/13 11:26:36;;;;;;;113.97;45.90;;;;;;;2.52;100.00;101521.36;3421781;83;98915;-85
2021/12/13 11:32:00;;;;;;;108.30;47.53;;;;;;;2.56;100.00;101525.11;3439667;83;99072;-84
2021/12/13 11:37:22;;;;;;;108.17;43.50;;;;;;;2.58;100.00;101524.24;3423885;84;99687;-86
2021/12/13 11:43:04;;;;;;;86.13;35.53;;;;;;;2.61;100.00;101531.78;3433567;84;99369;-87
2021/12/13 11:48:23;;;;;;;89.47;38.67;;;;;;;2.59;100.00;101515.80;3429896;83;99110;-88
2021/12/13 11:53:55;;;;;;;96.87;38.70;;;;;;;2.63;100.00;101520.88;3436628;84;99015;-88
2021/12/13 11:59:55;;;;;;;100.00;44.05;;;;;;;2.64;100.00;101526.59;3429244;83;99181;-86
2021/12/13 12:05:26;;;;;;;102.33;43.10;;;;;;;2.66;100.00;101528.44;3445758;84;99584;-86
2021/12/13 12:10:58;;;;;;;98.27;42.57;;;;;;;2.66;100.00;101532.52;3398230;84;99305;-87
2021/12/13 12:16:04;;;;;;;75.57;34.47;;;;;;;2.66;100.00;101534.42;3432525;84;99587;-89
2021/12/13 12:21:43;;;;;;;76.92;33.13;;;;;;;2.63;100.00;101535.03;3421582;84;99005;-91
2021/12/13 12:26:49;;;;;;;89.83;35.73;;;;;;;2.62;100.00;101532.06;3444597;83;98831;-90
2021/12/13 12:32:00;;;;;;;103.80;40.55;;;;;;;2.61;100.00;101525.81;3442736;83;98868;-89
2021/12/13 12:37:24;;;;;;;110.75;43.02;;;;;;;2.59;100.00;101518.52;3446757;83;99148;-90
2021/12/13 12:42:39;;;;;;;92.80;35.97;;;;;;;2.59;100.00;101531.28;3423856;83;99718;-88
2021/12/13 12:48:13;;;;;;;98.90;40.73;;;;;;;2.60;100.00;101524.20;3453785;84;99502;-88
2021/12/13 12:53:19;;;;;;;96.43;42.13;;;;;;;2.60;100.00;101524.74;3428073;83;99112;-89
2021/12/13 12:58:25;;;;;;;98.50;38.23;;;;;;;2.60;100.00;101522.02;3409362;84;99090;-86
2021/12/13 13:03:33;;;;;;;113.70;42.75;;;;;;;2.62;100.00;101529.34;3438477;84;26342;-87
2021/12/13 13:08:40;;;;;;;96.77;39.57;;;;;;;2.62;100.00;101537.50;3453714;83;99686;-87
2021/12/13 13:13:43;;;;;;;104.23;40.05;;;;;;;2.60;100.00;101532.89;3446533;83;98861;-88
2021/12/13 13:18:44;;;;;;;94.15;37.05;;;;;;;2.62;100.00;101537.50;3418992;84;99555;-86
2021/12/13 13:23:51;;;;;;;101.03;41.80;;;;;;;2.61;100.00;101538.04;3437081;83;99044;-87
2021/12/13 13:28:57;;;;;;;107.27;43.75;;;;;;;2.63;100.00;101548.05;3417077;84;99625;-86
2021/12/13 13:34:03;;;;;;;96.63;38.98;;;;;;;2.65;100.00;101541.78;3479698;82;99618;-88
2021/12/13 13:39:24;;;;;;;208.05;79.85;;;;;;;2.64;100.00;101547.52;3478260;83;99265;-88
2021/12/13 13:44:29;;;;;;;160.25;61.80;;;;;;;2.62;100.00;101553.80;3405900;83;99114;-87
2021/12/13 13:49:30;;;;;;;169.73;63.07;;;;;;;2.62;100.00;101567.39;3400751;84;99214;-88
2021/12/13 13:54:35;;;;;;;109.33;46.73;;;;;;;2.62;100.00;101571.47;3475150;82;99337;-87
2021/12/13 13:59:40;;;;;;;120.20;47.40;;;;;;;2.60;100.00;101583.98;3415310;84;99642;-87
2021/12/13 14:04:47;;;;;;;116.90;49.73;;;;;;;2.60;100.00;101578.55;3450543;83;99593;-87
2021/12/13 14:10:02;;;;;;;121.93;48.80;;;;;;;2.61;100.00;101591.57;3447158;82;99245;-86
2021/12/13 14:15:27;;;;;;;113.08;50.20;;;;;;;2.60;100.00;101597.58;3454568;83;98816;-87
2021/12/13 14:20:38;;;;;;;95.53;41.58;;;;;;;2.60;100.00;101603.55;3446352;82;99270;-86
2021/12/13 14:25:48;;;;;;;90.93;37.97;;;;;;;2.59;100.00;101601.95;3497458;83;98956;-87
2021/12/13 14:30:53;;;;;;;133.10;53.40;;;;;;;2.58;100.00;101609.84;3461243;82;99343;-87
2021/12/13 14:36:08;;;;;;;140.13;58.37;;;;;;;2.53;100.00;101613.45;3460881;82;99309;-87
2021/12/13 14:41:13;;;;;;;131.77;51.10;;;;;;;2.53;100.00;101604.48;3482794;82;99782;-87
2021/12/13 14:46:19;;;;;;;114.20;45.03;;;;;;;2.50;100.00;101619.47;3493086;82;99284;-88
2021/12/13 14:51:20;;;;;;;;;;;;;;;2.50;100.00;101611.31;3494994;83;98781;-85
2021/12/13 14:56:22;;;;;;;110.17;47.53;;;;;;;2.51;100.00;101618.93;3476957;82;84536;-86
2021/12/13 15:01:28;;;;;;;118.00;55.20;;;;;;;2.48;100.00;101614.89;3493295;82;99284;-86
2021/12/13 15:06:31;;;;;;;122.70;59.57;;;;;;;2.46;100.00;101614.36;3496610;82;99178;-86
2021/12/13 15:11:51;;;;;;;207.35;117.93;;;;;;;2.46;100.00;101620.36;3475250;83;99274;-83
2021/12/13 15:16:52;;;;;;;136.10;63.87;;;;;;;2.43;100.00;101622.29;3486678;82;99457;-85
2021/12/13 15:21:57;;;;;;;115.47;53.73;;;;;;;2.40;100.00;101618.25;3496508;82;99070;-86
2021/12/13 15:27:07;;;;;;;125.70;54.17;;;;;;;2.41;100.00;101622.58;3491656;82;98778;-84
2021/12/13 15:32:17;;;;;;;137.73;67.40;;;;;;;2.41;100.00;101625.30;3440991;83;99052;-86
2021/12/13 15:37:39;;;;;;;152.20;69.07;;;;;;;2.40;100.00;101626.97;3436877;84;99632;-86
2021/12/13 15:42:45;;;;;;;124.90;57.97;;;;;;;2.39;100.00;101620.72;3438970;83;99362;-86
2021/12/13 15:53:33;;;;;;;138.93;54.73;;;;;;;2.38;100.00;101633.23;3464633;83;99383;-87
2021/12/13 15:58:42;;;;;;;130.47;54.40;;;;;;;2.38;100.00;101637.30;3459668;83;98936;-87
2021/12/13 16:04:03;;;;;;;118.30;50.63;;;;;;;2.38;100.00;101646.27;3466376;83;33247;-86
2021/12/13 16:09:12;;;;;;;149.12;61.42;;;;;;;2.36;100.00;101643.02;3453650;83;99198;-87
2021/12/13 16:14:39;;;;;;;105.70;48.53;;;;;;;2.37;100.00;101638.41;3450593;83;99369;-88
2021/12/13 16:20:15;;;;;;;88.58;40.08;;;;;;;2.36;100.00;101644.95;3428053;83;99462;-87
2021/12/13 16:25:57;;;;;;;128.90;53.47;;;;;;;2.30;100.00;101648.27;3476826;83;99136;-86
2021/12/13 16:31:23;;;;;;;104.00;46.70;;;;;;;2.27;100.00;101657.56;3445698;83;99297;-87
2021/12/13 16:36:32;;;;;;;126.93;53.57;;;;;;;2.25;100.00;101663.27;3465912;83;99643;-86
2021/12/13 16:41:35;;;;;;;96.40;45.43;;;;;;;2.27;100.00;101661.63;3429489;84;99680;-87
2021/12/13 16:46:38;;;;;;;120.27;51.53;;;;;;;2.28;100.00;101665.42;3470130;83;99067;-87
2021/12/13 16:51:47;;;;;;;137.93;54.80;;;;;;;2.22;100.00;101650.83;3441638;83;99123;-88
2021/12/13 16:56:55;;;;;;;120.67;50.63;;;;;;;2.25;100.00;101651.05;3403048;84;99089;-87
2021/12/13 17:01:59;;;;;;;108.17;47.08;;;;;;;2.28;100.00;101651.84;3417560;83;99380;-87
2021/12/13 17:07:07;;;;;;;122.73;52.83;;;;;;;2.29;100.00;101658.09;3428503;84;98513;-87
2021/12/13 17:12:12;;;;;;;130.90;57.43;;;;;;;2.29;100.00;101663.53;3443828;83;99289;-88
2021/12/13 17:17:16;;;;;;;135.30;57.97;;;;;;;2.29;100.00;101663.53;3451944;83;99735;-89
2021/12/13 17:22:17;;;;;;;152.10;61.23;;;;;;;2.31;100.00;101662.67;3464927;83;99192;-87
2021/12/13 17:27:23;;;;;;;116.17;50.47;;;;;;;2.32;100.00;101667.00;3463083;83;33831;-87
2021/12/13 17:32:36;;;;;;;143.07;59.58;;;;;;;2.32;100.00;101671.08;3403299;84;99375;-87
2021/12/13 17:37:42;;;;;;;125.67;56.10;;;;;;;2.30;100.00;101664.56;3453890;83;99448;-88
2021/12/13 17:42:51;;;;;;;132.72;59.23;;;;;;;2.32;100.00;101664.28;3450955;83;99269;-87
2021/12/13 17:48:13;;;;;;;133.20;57.53;;;;;;;2.31;100.00;101664.85;3458288;82;99693;-88
2021/12/13 17:53:37;;;;;;;155.63;66.50;;;;;;;2.31;100.00;101666.75;3442870;83;99605;-86
2021/12/13 17:58:43;;;;;;;156.63;68.60;;;;;;;2.34;100.00;101668.86;3452520;82;99206;-87
2021/12/13 18:03:49;;;;;;;171.30;75.25;;;;;;;2.34;100.00;101668.86;3455659;83;26650;-87
2021/12/13 18:09:28;;;;;;;173.65;69.65;;;;;;;2.31;100.00;101669.47;3455814;83;99285;-86
2021/12/13 18:14:44;;;;;;;161.47;72.37;;;;;;;2.31;100.00;101669.47;3450041;82;99182;-87
2021/12/13 18:20:09;;;;;;;181.70;72.00;;;;;;;2.32;100.00;101683.30;3433523;84;99370;-86
2021/12/13 18:25:24;;;;;;;164.73;66.90;;;;;;;2.31;100.00;101687.94;3446591;83;99362;-86
2021/12/13 18:30:35;;;;;;;170.40;68.03;;;;;;;2.34;100.00;101687.87;3465650;83;99437;-86
2021/12/13 18:35:45;;;;;;;143.27;61.97;;;;;;;2.30;100.00;101686.87;3504307;82;99144;-87
2021/12/13 18:40:51;;;;;;;169.67;65.83;;;;;;;2.29;100.00;101686.05;3433358;83;99427;-88
2021/12/13 18:45:56;;;;;;;139.10;59.67;;;;;;;2.30;100.00;101676.00;3454053;83;26541;-86
2021/12/13 18:51:06;;;;;;;145.47;61.50;;;;;;;2.29;100.00;101677.90;3430537;83;99538;-86
2021/12/13 18:56:17;;;;;;;139.30;55.50;;;;;;;2.28;100.00;101672.21;3462165;83;98989;-86
2021/12/13 19:01:26;;;;;;;157.67;67.50;;;;;;;2.28;100.00;101673.57;3415630;83;99164;-86
2021/12/13 19:06:35;;;;;;;149.57;61.80;;;;;;;2.30;100.00;101671.93;3458287;83;99649;-86
2021/12/13 19:11:43;;;;;;;155.30;62.87;;;;;;;2.29;100.00;101673.83;3422910;84;99188;-83
2021/12/13 19:16:52;;;;;;;138.93;61.77;;;;;;;2.29;100.00;101662.95;3447106;83;99232;-86
2021/12/13 19:21:58;;;;;;;164.33;68.07;;;;;;;2.28;100.00;101665.42;3424511;83;99242;-86
2021/12/13 19:27:04;;;;;;;160.22;70.03;;;;;;;2.30;100.00;101674.08;3469958;82;98961;-86
2021/12/13 19:32:17;;;;;;;;;;;;;;;2.29;100.00;101676.54;3457459;82;99214;-85
2021/12/13 19:37:23;;;;;;;170.00;66.63;;;;;;;2.28;100.00;101674.93;3475615;83;84975;-86
2021/12/13 19:42:34;;;;;;;160.55;65.55;;;;;;;2.29;100.00;101670.31;3439515;83;99708;-84
2021/12/13 19:47:42;;;;;;;169.60;67.77;;;;;;;2.28;100.00;101676.83;3439043;83;100042;-86
2021/12/13 19:52:50;;;;;;;150.57;61.20;;;;;;;2.26;100.00;101678.50;3491300;82;99380;-87
2021/12/13 19:58:01;;;;;;;205.40;90.40;;;;;;;2.26;100.00;101679.86;3481369;82;100640;-85
2021/12/13 20:03:14;;;;;;;187.90;80.67;;;;;;;2.27;100.00;101667.06;3430286;83;99027;-87
2021/12/13 20:08:27;;;;;;;188.57;76.97;;;;;;;2.29;100.00;101664.31;3447657;83;99462;-92
2021/12/13 20:13:45;;;;;;;172.03;71.20;;;;;;;2.30;100.00;101665.14;3448367;83;99284;-92
2021/12/13 20:19:01;;;;;;;146.45;66.42;;;;;;;2.30;100.00;101671.36;3439220;83;99260;-91
2021/12/13 20:24:26;;;;;;;138.68;57.00;;;;;;;2.28;100.00;101683.08;3466247;83;99769;-92
2021/12/13 20:29:41;;;;;;;125.90;53.60;;;;;;;2.28;100.00;101679.00;3450396;83;99263;-91
2021/12/13 20:35:10;;;;;;;125.27;56.70;;;;;;;2.26;100.00;101681.21;3455423;83;99630;-88
2021/12/13 20:40:25;;;;;;;135.83;58.87;;;;;;;2.26;100.00;101677.67;3443383;83;99335;-89
2021/12/13 20:45:37;;;;;;;126.17;55.73;;;;;;;2.26;100.00;101677.14;3450331;83;33753;-91
2021/12/13 20:50:49;;;;;;;133.90;57.23;;;;;;;2.26;100.00;101676.32;3435918;82;99438;-91
2021/12/13 20:56:08;;;;;;;129.47;56.30;;;;;;;2.26;100.00;101675.78;3460977;83;99220;-89
2021/12/13 21:01:27;;;;;;;133.30;55.67;;;;;;;2.26;100.00;101652.70;3440642;84;99104;-90
2021/12/13 21:06:42;;;;;;;150.73;70.77;;;;;;;2.26;100.00;101647.80;3428436;83;99605;-90
2021/12/13 21:11:54;;;;;;;133.13;52.23;;;;;;;2.26;100.00;101654.59;3437401;83;99676;-90
2021/12/13 21:17:00;;;;;;;135.40;55.67;;;;;;;2.27;100.00;101646.69;3447909;82;99686;-92
2021/12/13 21:22:19;;;;;;;112.90;51.10;;;;;;;2.26;100.00;101651.34;3431755;83;99405;-91
2021/12/13 21:27:31;;;;;;;107.60;49.53;;;;;;;2.28;100.00;101657.27;3463957;82;99323;-91
2021/12/13 21:32:36;;;;;;;111.35;48.17;;;;;;;2.28;100.00;101658.63;3444479;83;99505;-92
2021/12/13 21:42:50;;;;;;;132.53;52.77;;;;;;;2.30;100.00;101667.28;3473283;83;99138;-92
2021/12/13 21:47:56;;;;;;;116.80;53.37;;;;;;;2.33;100.00;101670.80;3475982;82;99546;-91
2021/12/13 21:53:08;;;;;;;126.00;51.15;;;;;;;2.34;100.00;101664.25;3453973;84;99200;-92
2021/12/13 21:58:15;;;;;;;124.62;49.20;;;;;;;2.37;100.00;101666.94;3448105;83;99383;-92
2021/12/13 22:03:17;;;;;;;117.85;44.08;;;;;;;2.36;100.00;101654.45;3461376;83;99479;-92
2021/12/13 22:08:27;;;;;;;97.10;40.67;;;;;;;2.35;100.00;101657.71;3453357;83;99526;-93
2021/12/13 22:13:33;;;;;;;118.93;45.23;;;;;;;2.38;100.00;101650.88;3457377;83;99498;-93
2021/12/13 22:18:39;;;;;;;101.82;40.33;;;;;;;2.41;100.00;101647.03;3453814;82;99596;-93
2021/12/13 22:23:46;;;;;;;108.40;40.43;;;;;;;2.42;100.00;101655.47;3454873;83;99339;-93
2021/12/13 22:28:48;;;;;;;101.35;39.85;;;;;;;2.44;100.00;101653.25;3476468;82;99342;-93
2021/12/13 22:33:58;;;;;;;95.47;37.87;;;;;;;2.47;100.00;101649.14;3497491;82;25989;-93
2021/12/13 22:38:59;;;;;;;96.67;39.43;;;;;;;2.46;100.00;101664.63;3439425;83;99177;-94
2021/12/13 22:44:16;;;;;;;133.33;47.27;;;;;;;2.46;100.00;101658.39;3455282;83;99276;-92
2021/12/13 22:49:25;;;;;;;119.45;44.80;;;;;;;2.47;100.00;101648.57;3479198;82;99190;-93
2021/12/13 22:54:30;;;;;;;111.87;43.70;;;;;;;2.49;100.00;101648.28;3492726;81;99221;-93
2021/12/13 22:59:35;;;;;;;110.13;40.33;;;;;;;2.51;100.00;101647.45;3489790;82;99325;-93
2021/12/13 23:04:42;;;;;;;115.93;40.60;;;;;;;2.53;100.00;101637.09;3408323;83;99551;-94
2021/12/13 23:10:20;;;;;;;126.70;41.37;;;;;;;2.55;100.00;101631.62;3487119;83;99230;-93
2021/12/13 23:15:27;;;;;;;101.40;36.77;;;;;;;2.57;100.00;101621.83;3452974;83;99264;-94
2021/12/13 23:20:29;;;;;;;96.20;35.37;;;;;;;2.58;100.00;101627.51;3429651;83;99316;-94
2021/12/13 23:25:32;;;;;;;106.67;37.77;;;;;;;2.61;100.00;101626.91;3469409;82;98936;-93
2021/12/13 23:30:39;;;;;;;103.95;41.33;;;;;;;2.62;100.00;101631.27;3458832;83;99201;-94
2021/12/13 23:35:58;;;;;;;128.27;44.67;;;;;;;2.64;100.00;101631.77;3450474;83;99203;-93
2021/12/13 23:46:12;;;;;;;107.37;43.63;;;;;;;2.72;100.00;101635.16;3510293;82;26425;-93